sensor_id;sensor_type;location;lat;lon;timestamp;P1;durP1;ratioP1;P2;durP2;ratioP2
8458;SDS011;4266;48.816;9.154;2023-11-21T00:00:02;6.53;;;3.30;;
8458;SDS011;4266;48.816;9.154;2023-11-21T00:02:28;5.37;;;3.23;;
8458;SDS011;4266;48.816;9.154;2023-11-21T00:04:55;7.00;;;2.87;;
8458;SDS011;4266;48.816;9.154;2023-11-21T00:07:21;11.07;;;3.73;;
8458;SDS011;4266;48.816;9.154;2023-11-21T00:09:46;8.23;;;3.40;;
8458;SDS011;4266;48.816;9.154;2023-11-21T00:12:12;6.70;;;2.97;;
8458;SDS011;4266;48.816;9.154;2023-11-21T00:14:38;8.37;;;3.23;;
8458;SDS011;4266;48.816;9.154;2023-11-21T00:17:04;4.23;;;2.70;;
8458;SDS011;4266;48.816;9.154;2023-11-21T00:19:30;6.07;;;2.67;;
8458;SDS011;4266;48.816;9.154;2023-11-21T00:21:55;5.43;;;3.13;;
8458;SDS011;4266;48.816;9.154;2023-11-21T00:24:21;7.60;;;3.10;;
8458;SDS011;4266;48.816;9.154;2023-11-21T00:26:47;8.37;;;3.33;;
8458;SDS011;4266;48.816;9.154;2023-11-21T00:29:13;7.20;;;3.30;;
8458;SDS011;4266;48.816;9.154;2023-11-21T00:31:39;4.60;;;2.70;;
8458;SDS011;4266;48.816;9.154;2023-11-21T00:34:05;6.97;;;2.90;;
8458;SDS011;4266;48.816;9.154;2023-11-21T00:36:31;6.37;;;2.83;;
8458;SDS011;4266;48.816;9.154;2023-11-21T00:38:56;4.07;;;2.80;;
8458;SDS011;4266;48.816;9.154;2023-11-21T00:41:22;4.03;;;2.50;;
8458;SDS011;4266;48.816;9.154;2023-11-21T00:43:49;5.17;;;3.10;;
8458;SDS011;4266;48.816;9.154;2023-11-21T00:46:14;6.40;;;2.97;;
8458;SDS011;4266;48.816;9.154;2023-11-21T00:48:40;7.90;;;3.17;;
8458;SDS011;4266;48.816;9.154;2023-11-21T00:51:06;8.93;;;3.53;;
8458;SDS011;4266;48.816;9.154;2023-11-21T00:53:32;8.03;;;3.43;;
8458;SDS011;4266;48.816;9.154;2023-11-21T00:55:58;3.43;;;2.80;;
8458;SDS011;4266;48.816;9.154;2023-11-21T00:58:24;4.27;;;3.20;;
8458;SDS011;4266;48.816;9.154;2023-11-21T01:00:50;6.17;;;3.23;;
8458;SDS011;4266;48.816;9.154;2023-11-21T01:03:15;9.27;;;3.53;;
8458;SDS011;4266;48.816;9.154;2023-11-21T01:05:41;6.63;;;3.30;;
8458;SDS011;4266;48.816;9.154;2023-11-21T01:08:07;8.50;;;3.10;;
8458;SDS011;4266;48.816;9.154;2023-11-21T01:10:33;8.10;;;3.00;;
8458;SDS011;4266;48.816;9.154;2023-11-21T01:13:00;5.80;;;2.97;;
8458;SDS011;4266;48.816;9.154;2023-11-21T01:15:25;5.13;;;2.80;;
8458;SDS011;4266;48.816;9.154;2023-11-21T01:17:52;6.07;;;3.10;;
8458;SDS011;4266;48.816;9.154;2023-11-21T01:20:18;4.70;;;2.90;;
8458;SDS011;4266;48.816;9.154;2023-11-21T01:22:43;4.10;;;2.50;;
8458;SDS011;4266;48.816;9.154;2023-11-21T01:25:09;6.70;;;2.73;;
8458;SDS011;4266;48.816;9.154;2023-11-21T01:27:34;4.70;;;2.53;;
8458;SDS011;4266;48.816;9.154;2023-11-21T01:30:01;4.27;;;2.50;;
8458;SDS011;4266;48.816;9.154;2023-11-21T01:32:27;7.93;;;2.73;;
8458;SDS011;4266;48.816;9.154;2023-11-21T01:34:52;5.17;;;2.83;;
8458;SDS011;4266;48.816;9.154;2023-11-21T01:37:18;5.20;;;2.80;;
8458;SDS011;4266;48.816;9.154;2023-11-21T01:39:44;7.80;;;2.63;;
8458;SDS011;4266;48.816;9.154;2023-11-21T01:42:09;7.70;;;2.73;;
8458;SDS011;4266;48.816;9.154;2023-11-21T01:44:35;4.93;;;2.37;;
8458;SDS011;4266;48.816;9.154;2023-11-21T01:47:01;4.37;;;2.57;;
8458;SDS011;4266;48.816;9.154;2023-11-21T01:49:27;5.10;;;2.60;;
8458;SDS011;4266;48.816;9.154;2023-11-21T01:51:53;7.43;;;2.40;;
8458;SDS011;4266;48.816;9.154;2023-11-21T01:54:18;2.67;;;2.10;;
8458;SDS011;4266;48.816;9.154;2023-11-21T01:56:46;2.93;;;2.43;;
8458;SDS011;4266;48.816;9.154;2023-11-21T01:59:11;8.33;;;2.60;;
8458;SDS011;4266;48.816;9.154;2023-11-21T02:01:37;7.00;;;2.40;;
8458;SDS011;4266;48.816;9.154;2023-11-21T02:04:03;2.60;;;2.40;;
8458;SDS011;4266;48.816;9.154;2023-11-21T02:06:29;4.17;;;2.27;;
8458;SDS011;4266;48.816;9.154;2023-11-21T02:08:54;5.40;;;2.53;;
8458;SDS011;4266;48.816;9.154;2023-11-21T02:11:21;5.33;;;2.57;;
8458;SDS011;4266;48.816;9.154;2023-11-21T02:16:38;2.57;;;2.37;;
8458;SDS011;4266;48.816;9.154;2023-11-21T02:19:04;2.90;;;2.40;;
8458;SDS011;4266;48.816;9.154;2023-11-21T02:21:30;2.93;;;2.60;;
8458;SDS011;4266;48.816;9.154;2023-11-21T02:23:55;4.00;;;2.37;;
8458;SDS011;4266;48.816;9.154;2023-11-21T02:26:21;2.83;;;2.30;;
8458;SDS011;4266;48.816;9.154;2023-11-21T02:28:47;2.83;;;2.10;;
8458;SDS011;4266;48.816;9.154;2023-11-21T02:31:13;5.23;;;2.40;;
8458;SDS011;4266;48.816;9.154;2023-11-21T02:33:40;4.67;;;2.57;;
8458;SDS011;4266;48.816;9.154;2023-11-21T02:36:05;4.67;;;2.27;;
8458;SDS011;4266;48.816;9.154;2023-11-21T02:38:31;5.83;;;2.47;;
8458;SDS011;4266;48.816;9.154;2023-11-21T02:40:58;4.10;;;2.30;;
8458;SDS011;4266;48.816;9.154;2023-11-21T02:43:24;5.03;;;2.40;;
8458;SDS011;4266;48.816;9.154;2023-11-21T02:45:51;3.97;;;2.43;;
8458;SDS011;4266;48.816;9.154;2023-11-21T02:48:17;2.23;;;1.97;;
8458;SDS011;4266;48.816;9.154;2023-11-21T02:50:42;2.83;;;2.10;;
8458;SDS011;4266;48.816;9.154;2023-11-21T02:53:08;3.70;;;2.20;;
8458;SDS011;4266;48.816;9.154;2023-11-21T02:55:34;2.53;;;2.10;;
8458;SDS011;4266;48.816;9.154;2023-11-21T02:57:59;2.30;;;2.10;;
8458;SDS011;4266;48.816;9.154;2023-11-21T03:00:25;4.63;;;2.50;;
8458;SDS011;4266;48.816;9.154;2023-11-21T03:02:51;3.80;;;2.03;;
8458;SDS011;4266;48.816;9.154;2023-11-21T03:05:16;5.77;;;2.23;;
8458;SDS011;4266;48.816;9.154;2023-11-21T03:07:42;2.00;;;1.80;;
8458;SDS011;4266;48.816;9.154;2023-11-21T03:10:08;2.60;;;2.30;;
8458;SDS011;4266;48.816;9.154;2023-11-21T03:12:34;4.93;;;2.40;;
8458;SDS011;4266;48.816;9.154;2023-11-21T03:15:00;3.43;;;2.23;;
8458;SDS011;4266;48.816;9.154;2023-11-21T03:17:27;2.23;;;1.90;;
8458;SDS011;4266;48.816;9.154;2023-11-21T03:19:53;4.13;;;2.10;;
8458;SDS011;4266;48.816;9.154;2023-11-21T03:22:19;4.20;;;2.13;;
8458;SDS011;4266;48.816;9.154;2023-11-21T03:24:45;3.03;;;1.90;;
8458;SDS011;4266;48.816;9.154;2023-11-21T03:27:10;3.73;;;2.00;;
8458;SDS011;4266;48.816;9.154;2023-11-21T03:29:36;3.13;;;2.00;;
8458;SDS011;4266;48.816;9.154;2023-11-21T03:32:03;3.17;;;2.00;;
8458;SDS011;4266;48.816;9.154;2023-11-21T03:34:30;4.10;;;2.10;;
8458;SDS011;4266;48.816;9.154;2023-11-21T03:36:55;2.43;;;1.60;;
8458;SDS011;4266;48.816;9.154;2023-11-21T03:39:22;2.70;;;1.73;;
8458;SDS011;4266;48.816;9.154;2023-11-21T03:41:47;2.20;;;1.80;;
8458;SDS011;4266;48.816;9.154;2023-11-21T03:44:13;3.00;;;1.80;;
8458;SDS011;4266;48.816;9.154;2023-11-21T03:46:39;4.03;;;2.10;;
8458;SDS011;4266;48.816;9.154;2023-11-21T03:49:04;2.00;;;1.90;;
8458;SDS011;4266;48.816;9.154;2023-11-21T03:51:30;1.97;;;1.83;;
8458;SDS011;4266;48.816;9.154;2023-11-21T03:53:56;2.53;;;1.70;;
8458;SDS011;4266;48.816;9.154;2023-11-21T03:56:21;2.20;;;2.00;;
8458;SDS011;4266;48.816;9.154;2023-11-21T03:58:48;3.30;;;2.10;;
8458;SDS011;4266;48.816;9.154;2023-11-21T04:01:18;2.20;;;2.00;;
8458;SDS011;4266;48.816;9.154;2023-11-21T04:03:39;2.77;;;1.80;;
8458;SDS011;4266;48.816;9.154;2023-11-21T04:06:04;2.57;;;1.93;;
8458;SDS011;4266;48.816;9.154;2023-11-21T04:08:30;2.33;;;1.60;;
8458;SDS011;4266;48.816;9.154;2023-11-21T04:10:57;2.17;;;1.80;;
8458;SDS011;4266;48.816;9.154;2023-11-21T04:13:22;2.67;;;1.80;;
8458;SDS011;4266;48.816;9.154;2023-11-21T04:15:49;3.17;;;1.73;;
8458;SDS011;4266;48.816;9.154;2023-11-21T04:18:15;2.93;;;1.70;;
8458;SDS011;4266;48.816;9.154;2023-11-21T04:20:40;2.70;;;1.63;;
8458;SDS011;4266;48.816;9.154;2023-11-21T04:23:07;1.83;;;1.73;;
8458;SDS011;4266;48.816;9.154;2023-11-21T04:25:32;2.30;;;1.80;;
8458;SDS011;4266;48.816;9.154;2023-11-21T04:27:59;1.80;;;1.70;;
8458;SDS011;4266;48.816;9.154;2023-11-21T04:30:24;3.07;;;1.90;;
8458;SDS011;4266;48.816;9.154;2023-11-21T04:32:51;1.80;;;1.60;;
8458;SDS011;4266;48.816;9.154;2023-11-21T04:35:16;2.43;;;1.80;;
8458;SDS011;4266;48.816;9.154;2023-11-21T04:37:42;1.77;;;1.67;;
8458;SDS011;4266;48.816;9.154;2023-11-21T04:40:09;3.27;;;1.50;;
8458;SDS011;4266;48.816;9.154;2023-11-21T04:42:36;2.03;;;1.60;;
8458;SDS011;4266;48.816;9.154;2023-11-21T04:45:01;3.93;;;1.70;;
8458;SDS011;4266;48.816;9.154;2023-11-21T04:47:28;2.87;;;1.63;;
8458;SDS011;4266;48.816;9.154;2023-11-21T04:49:54;4.80;;;1.87;;
8458;SDS011;4266;48.816;9.154;2023-11-21T04:52:20;2.70;;;1.60;;
8458;SDS011;4266;48.816;9.154;2023-11-21T04:54:46;2.50;;;1.60;;
8458;SDS011;4266;48.816;9.154;2023-11-21T04:57:12;3.57;;;1.90;;
8458;SDS011;4266;48.816;9.154;2023-11-21T04:59:37;2.47;;;2.13;;
8458;SDS011;4266;48.816;9.154;2023-11-21T05:02:03;2.83;;;1.80;;
8458;SDS011;4266;48.816;9.154;2023-11-21T05:04:30;2.70;;;2.10;;
8458;SDS011;4266;48.816;9.154;2023-11-21T05:06:55;4.03;;;1.70;;
8458;SDS011;4266;48.816;9.154;2023-11-21T05:09:21;1.70;;;1.60;;
8458;SDS011;4266;48.816;9.154;2023-11-21T05:11:47;1.97;;;1.87;;
8458;SDS011;4266;48.816;9.154;2023-11-21T05:14:12;3.10;;;2.10;;
8458;SDS011;4266;48.816;9.154;2023-11-21T05:16:39;2.70;;;2.10;;
8458;SDS011;4266;48.816;9.154;2023-11-21T05:19:04;2.30;;;2.10;;
8458;SDS011;4266;48.816;9.154;2023-11-21T05:21:30;2.53;;;2.17;;
8458;SDS011;4266;48.816;9.154;2023-11-21T05:23:57;2.27;;;1.90;;
8458;SDS011;4266;48.816;9.154;2023-11-21T05:26:23;1.80;;;1.70;;
8458;SDS011;4266;48.816;9.154;2023-11-21T05:28:48;3.17;;;2.10;;
8458;SDS011;4266;48.816;9.154;2023-11-21T05:31:14;3.07;;;2.07;;
8458;SDS011;4266;48.816;9.154;2023-11-21T05:33:40;2.60;;;1.97;;
8458;SDS011;4266;48.816;9.154;2023-11-21T05:36:06;1.93;;;1.83;;
8458;SDS011;4266;48.816;9.154;2023-11-21T05:38:32;2.33;;;1.77;;
8458;SDS011;4266;48.816;9.154;2023-11-21T05:40:58;4.23;;;2.40;;
8458;SDS011;4266;48.816;9.154;2023-11-21T05:43:24;3.80;;;2.20;;
8458;SDS011;4266;48.816;9.154;2023-11-21T05:45:50;2.30;;;2.10;;
8458;SDS011;4266;48.816;9.154;2023-11-21T05:48:15;2.57;;;2.37;;
8458;SDS011;4266;48.816;9.154;2023-11-21T05:50:41;3.77;;;2.27;;
8458;SDS011;4266;48.816;9.154;2023-11-21T05:53:07;2.90;;;2.30;;
8458;SDS011;4266;48.816;9.154;2023-11-21T05:55:33;4.57;;;2.00;;
8458;SDS011;4266;48.816;9.154;2023-11-21T05:57:59;2.40;;;1.90;;
8458;SDS011;4266;48.816;9.154;2023-11-21T06:00:25;3.97;;;3.67;;
8458;SDS011;4266;48.816;9.154;2023-11-21T06:02:51;2.37;;;2.20;;
8458;SDS011;4266;48.816;9.154;2023-11-21T06:05:17;4.63;;;3.00;;
8458;SDS011;4266;48.816;9.154;2023-11-21T06:07:42;2.70;;;2.50;;
8458;SDS011;4266;48.816;9.154;2023-11-21T06:10:08;3.17;;;2.87;;
8458;SDS011;4266;48.816;9.154;2023-11-21T06:12:34;3.13;;;2.80;;
8458;SDS011;4266;48.816;9.154;2023-11-21T06:15:00;2.53;;;2.43;;
8458;SDS011;4266;48.816;9.154;2023-11-21T06:17:26;3.17;;;2.93;;
8458;SDS011;4266;48.816;9.154;2023-11-21T06:19:51;4.63;;;2.67;;
8458;SDS011;4266;48.816;9.154;2023-11-21T06:22:18;2.50;;;2.30;;
8458;SDS011;4266;48.816;9.154;2023-11-21T06:24:44;3.10;;;2.70;;
8458;SDS011;4266;48.816;9.154;2023-11-21T06:27:09;3.50;;;2.40;;
8458;SDS011;4266;48.816;9.154;2023-11-21T06:29:35;4.03;;;2.93;;
8458;SDS011;4266;48.816;9.154;2023-11-21T06:32:01;7.83;;;3.20;;
8458;SDS011;4266;48.816;9.154;2023-11-21T06:34:26;3.50;;;3.30;;
8458;SDS011;4266;48.816;9.154;2023-11-21T06:36:52;2.87;;;2.57;;
8458;SDS011;4266;48.816;9.154;2023-11-21T06:39:18;4.73;;;2.90;;
8458;SDS011;4266;48.816;9.154;2023-11-21T06:41:44;3.77;;;3.10;;
8458;SDS011;4266;48.816;9.154;2023-11-21T06:44:10;3.83;;;2.90;;
8458;SDS011;4266;48.816;9.154;2023-11-21T06:46:36;3.33;;;3.03;;
8458;SDS011;4266;48.816;9.154;2023-11-21T06:49:02;2.60;;;2.50;;
8458;SDS011;4266;48.816;9.154;2023-11-21T06:51:27;4.90;;;2.90;;
8458;SDS011;4266;48.816;9.154;2023-11-21T06:53:53;3.50;;;3.20;;
8458;SDS011;4266;48.816;9.154;2023-11-21T06:56:19;3.20;;;2.80;;
8458;SDS011;4266;48.816;9.154;2023-11-21T06:58:45;3.43;;;3.13;;
8458;SDS011;4266;48.816;9.154;2023-11-21T07:01:11;4.23;;;3.93;;
8458;SDS011;4266;48.816;9.154;2023-11-21T07:03:36;4.43;;;4.03;;
8458;SDS011;4266;48.816;9.154;2023-11-21T07:06:03;4.53;;;3.70;;
8458;SDS011;4266;48.816;9.154;2023-11-21T07:08:29;3.73;;;3.40;;
8458;SDS011;4266;48.816;9.154;2023-11-21T07:10:55;2.73;;;2.57;;
8458;SDS011;4266;48.816;9.154;2023-11-21T07:13:20;5.23;;;3.23;;
8458;SDS011;4266;48.816;9.154;2023-11-21T07:15:46;3.40;;;3.20;;
8458;SDS011;4266;48.816;9.154;2023-11-21T07:18:12;4.50;;;3.20;;
8458;SDS011;4266;48.816;9.154;2023-11-21T07:20:37;4.97;;;3.70;;
8458;SDS011;4266;48.816;9.154;2023-11-21T07:23:03;4.23;;;3.60;;
8458;SDS011;4266;48.816;9.154;2023-11-21T07:25:29;3.67;;;3.37;;
8458;SDS011;4266;48.816;9.154;2023-11-21T07:27:54;5.43;;;2.90;;
8458;SDS011;4266;48.816;9.154;2023-11-21T07:30:20;4.50;;;3.73;;
8458;SDS011;4266;48.816;9.154;2023-11-21T07:32:46;8.90;;;3.40;;
8458;SDS011;4266;48.816;9.154;2023-11-21T07:35:11;6.67;;;3.53;;
8458;SDS011;4266;48.816;9.154;2023-11-21T07:37:37;5.90;;;3.50;;
8458;SDS011;4266;48.816;9.154;2023-11-21T07:40:04;6.70;;;3.53;;
8458;SDS011;4266;48.816;9.154;2023-11-21T07:42:31;9.27;;;3.60;;
8458;SDS011;4266;48.816;9.154;2023-11-21T07:44:57;5.20;;;3.97;;
8458;SDS011;4266;48.816;9.154;2023-11-21T07:47:22;4.40;;;4.00;;
8458;SDS011;4266;48.816;9.154;2023-11-21T07:49:48;3.77;;;3.13;;
8458;SDS011;4266;48.816;9.154;2023-11-21T07:52:14;7.67;;;3.10;;
8458;SDS011;4266;48.816;9.154;2023-11-21T07:54:40;4.07;;;3.53;;
8458;SDS011;4266;48.816;9.154;2023-11-21T07:57:06;3.30;;;3.00;;
8458;SDS011;4266;48.816;9.154;2023-11-21T07:59:31;3.93;;;3.50;;
8458;SDS011;4266;48.816;9.154;2023-11-21T08:01:57;3.30;;;3.10;;
8458;SDS011;4266;48.816;9.154;2023-11-21T08:04:23;3.23;;;2.90;;
8458;SDS011;4266;48.816;9.154;2023-11-21T08:06:49;3.33;;;3.03;;
8458;SDS011;4266;48.816;9.154;2023-11-21T08:09:16;3.30;;;3.00;;
8458;SDS011;4266;48.816;9.154;2023-11-21T08:11:42;5.00;;;3.27;;
8458;SDS011;4266;48.816;9.154;2023-11-21T08:14:08;5.83;;;2.93;;
8458;SDS011;4266;48.816;9.154;2023-11-21T08:16:33;5.03;;;3.20;;
8458;SDS011;4266;48.816;9.154;2023-11-21T08:19:00;3.13;;;2.83;;
8458;SDS011;4266;48.816;9.154;2023-11-21T08:21:26;6.83;;;3.70;;
8458;SDS011;4266;48.816;9.154;2023-11-21T08:23:53;5.00;;;4.50;;
8458;SDS011;4266;48.816;9.154;2023-11-21T08:26:20;6.87;;;4.83;;
8458;SDS011;4266;48.816;9.154;2023-11-21T08:28:45;6.17;;;4.83;;
8458;SDS011;4266;48.816;9.154;2023-11-21T08:31:10;7.10;;;4.10;;
8458;SDS011;4266;48.816;9.154;2023-11-21T08:33:37;4.77;;;4.37;;
8458;SDS011;4266;48.816;9.154;2023-11-21T08:36:06;8.53;;;7.63;;
8458;SDS011;4266;48.816;9.154;2023-11-21T08:38:29;5.30;;;4.07;;
8458;SDS011;4266;48.816;9.154;2023-11-21T08:40:56;3.80;;;3.37;;
8458;SDS011;4266;48.816;9.154;2023-11-21T08:43:21;3.27;;;3.03;;
8458;SDS011;4266;48.816;9.154;2023-11-21T08:45:47;3.73;;;3.40;;
8458;SDS011;4266;48.816;9.154;2023-11-21T08:48:14;3.10;;;2.80;;
8458;SDS011;4266;48.816;9.154;2023-11-21T08:50:40;3.53;;;2.97;;
8458;SDS011;4266;48.816;9.154;2023-11-21T08:53:07;2.90;;;2.70;;
8458;SDS011;4266;48.816;9.154;2023-11-21T08:55:32;5.33;;;3.00;;
8458;SDS011;4266;48.816;9.154;2023-11-21T08:57:58;5.43;;;2.93;;
8458;SDS011;4266;48.816;9.154;2023-11-21T09:00:24;2.37;;;2.13;;
8458;SDS011;4266;48.816;9.154;2023-11-21T09:02:49;3.13;;;2.90;;
8458;SDS011;4266;48.816;9.154;2023-11-21T09:05:15;3.10;;;2.80;;
8458;SDS011;4266;48.816;9.154;2023-11-21T09:07:41;3.03;;;2.83;;
8458;SDS011;4266;48.816;9.154;2023-11-21T09:10:08;2.90;;;2.60;;
8458;SDS011;4266;48.816;9.154;2023-11-21T09:12:35;2.93;;;2.60;;
8458;SDS011;4266;48.816;9.154;2023-11-21T09:15:02;2.97;;;2.67;;
8458;SDS011;4266;48.816;9.154;2023-11-21T09:17:28;3.70;;;2.70;;
8458;SDS011;4266;48.816;9.154;2023-11-21T09:19:53;3.47;;;2.80;;
8458;SDS011;4266;48.816;9.154;2023-11-21T09:22:20;2.47;;;2.37;;
8458;SDS011;4266;48.816;9.154;2023-11-21T09:24:45;3.50;;;2.77;;
8458;SDS011;4266;48.816;9.154;2023-11-21T09:27:12;2.70;;;2.50;;
8458;SDS011;4266;48.816;9.154;2023-11-21T09:29:37;3.20;;;2.30;;
8458;SDS011;4266;48.816;9.154;2023-11-21T09:32:05;4.43;;;2.80;;
8458;SDS011;4266;48.816;9.154;2023-11-21T09:34:33;3.57;;;3.17;;
8458;SDS011;4266;48.816;9.154;2023-11-21T09:36:58;3.27;;;2.90;;
8458;SDS011;4266;48.816;9.154;2023-11-21T09:39:24;2.70;;;2.50;;
8458;SDS011;4266;48.816;9.154;2023-11-21T09:41:51;3.10;;;2.90;;
8458;SDS011;4266;48.816;9.154;2023-11-21T09:44:17;2.77;;;2.30;;
8458;SDS011;4266;48.816;9.154;2023-11-21T09:46:43;2.70;;;2.60;;
8458;SDS011;4266;48.816;9.154;2023-11-21T09:49:10;2.30;;;2.10;;
8458;SDS011;4266;48.816;9.154;2023-11-21T09:51:36;2.40;;;2.20;;
8458;SDS011;4266;48.816;9.154;2023-11-21T09:54:02;2.47;;;2.30;;
8458;SDS011;4266;48.816;9.154;2023-11-21T09:56:28;2.60;;;2.40;;
8458;SDS011;4266;48.816;9.154;2023-11-21T09:58:54;5.07;;;2.97;;
8458;SDS011;4266;48.816;9.154;2023-11-21T10:01:20;3.30;;;2.90;;
8458;SDS011;4266;48.816;9.154;2023-11-21T10:03:46;5.20;;;3.10;;
8458;SDS011;4266;48.816;9.154;2023-11-21T10:06:12;2.80;;;2.70;;
8458;SDS011;4266;48.816;9.154;2023-11-21T10:08:38;2.60;;;2.40;;
8458;SDS011;4266;48.816;9.154;2023-11-21T10:11:05;2.73;;;2.53;;
8458;SDS011;4266;48.816;9.154;2023-11-21T10:13:31;2.30;;;2.10;;
8458;SDS011;4266;48.816;9.154;2023-11-21T10:15:56;2.43;;;2.23;;
8458;SDS011;4266;48.816;9.154;2023-11-21T10:18:23;2.30;;;2.10;;
8458;SDS011;4266;48.816;9.154;2023-11-21T10:20:49;2.10;;;2.00;;
8458;SDS011;4266;48.816;9.154;2023-11-21T10:23:18;2.30;;;2.10;;
8458;SDS011;4266;48.816;9.154;2023-11-21T10:25:45;2.20;;;2.00;;
8458;SDS011;4266;48.816;9.154;2023-11-21T10:28:11;1.90;;;1.80;;
8458;SDS011;4266;48.816;9.154;2023-11-21T10:30:37;2.00;;;1.90;;
8458;SDS011;4266;48.816;9.154;2023-11-21T10:33:06;2.53;;;1.93;;
8458;SDS011;4266;48.816;9.154;2023-11-21T10:35:48;3.80;;;3.50;;
8458;SDS011;4266;48.816;9.154;2023-11-21T10:38:14;3.90;;;3.60;;
8458;SDS011;4266;48.816;9.154;2023-11-21T10:40:40;2.80;;;2.20;;
8458;SDS011;4266;48.816;9.154;2023-11-21T10:43:06;2.90;;;2.70;;
8458;SDS011;4266;48.816;9.154;2023-11-21T10:45:31;2.60;;;2.40;;
8458;SDS011;4266;48.816;9.154;2023-11-21T10:47:57;2.43;;;2.33;;
8458;SDS011;4266;48.816;9.154;2023-11-21T10:50:23;2.20;;;2.10;;
8458;SDS011;4266;48.816;9.154;2023-11-21T10:52:49;2.70;;;2.50;;
8458;SDS011;4266;48.816;9.154;2023-11-21T10:55:16;2.53;;;2.43;;
8458;SDS011;4266;48.816;9.154;2023-11-21T10:57:42;2.37;;;2.27;;
8458;SDS011;4266;48.816;9.154;2023-11-21T11:00:08;2.70;;;2.50;;
8458;SDS011;4266;48.816;9.154;2023-11-21T11:02:35;2.37;;;2.17;;
8458;SDS011;4266;48.816;9.154;2023-11-21T11:05:01;2.57;;;2.43;;
8458;SDS011;4266;48.816;9.154;2023-11-21T11:07:27;2.57;;;2.37;;
8458;SDS011;4266;48.816;9.154;2023-11-21T11:09:54;2.60;;;2.40;;
8458;SDS011;4266;48.816;9.154;2023-11-21T11:12:20;2.23;;;1.97;;
8458;SDS011;4266;48.816;9.154;2023-11-21T11:14:45;2.17;;;2.07;;
8458;SDS011;4266;48.816;9.154;2023-11-21T11:17:11;3.77;;;2.50;;
8458;SDS011;4266;48.816;9.154;2023-11-21T11:19:37;3.87;;;2.30;;
8458;SDS011;4266;48.816;9.154;2023-11-21T11:22:08;2.40;;;2.20;;
8458;SDS011;4266;48.816;9.154;2023-11-21T11:24:36;3.40;;;2.50;;
8458;SDS011;4266;48.816;9.154;2023-11-21T11:30:14;2.80;;;2.30;;
8458;SDS011;4266;48.816;9.154;2023-11-21T11:33:04;2.73;;;2.60;;
8458;SDS011;4266;48.816;9.154;2023-11-21T11:35:34;2.40;;;2.20;;
8458;SDS011;4266;48.816;9.154;2023-11-21T11:37:56;3.10;;;2.90;;
8458;SDS011;4266;48.816;9.154;2023-11-21T11:40:22;2.33;;;2.23;;
8458;SDS011;4266;48.816;9.154;2023-11-21T11:42:55;2.73;;;2.53;;
8458;SDS011;4266;48.816;9.154;2023-11-21T11:45:20;3.00;;;2.47;;
8458;SDS011;4266;48.816;9.154;2023-11-21T11:47:47;2.70;;;2.60;;
8458;SDS011;4266;48.816;9.154;2023-11-21T11:50:12;2.70;;;2.50;;
8458;SDS011;4266;48.816;9.154;2023-11-21T11:52:40;3.17;;;2.87;;
8458;SDS011;4266;48.816;9.154;2023-11-21T11:55:10;4.07;;;2.90;;
8458;SDS011;4266;48.816;9.154;2023-11-21T11:57:35;2.60;;;2.50;;
8458;SDS011;4266;48.816;9.154;2023-11-21T12:00:07;2.03;;;1.93;;
8458;SDS011;4266;48.816;9.154;2023-11-21T12:02:44;2.17;;;2.07;;
8458;SDS011;4266;48.816;9.154;2023-11-21T12:05:11;2.17;;;2.07;;
8458;SDS011;4266;48.816;9.154;2023-11-21T12:07:41;2.67;;;2.20;;
8458;SDS011;4266;48.816;9.154;2023-11-21T12:10:10;2.30;;;2.20;;
8458;SDS011;4266;48.816;9.154;2023-11-21T12:12:34;3.67;;;2.40;;
8458;SDS011;4266;48.816;9.154;2023-11-21T12:15:00;2.10;;;2.00;;
8458;SDS011;4266;48.816;9.154;2023-11-21T12:17:26;2.30;;;2.20;;
8458;SDS011;4266;48.816;9.154;2023-11-21T12:19:52;2.37;;;2.17;;
8458;SDS011;4266;48.816;9.154;2023-11-21T12:22:18;2.27;;;2.17;;
8458;SDS011;4266;48.816;9.154;2023-11-21T12:24:44;2.30;;;2.10;;
8458;SDS011;4266;48.816;9.154;2023-11-21T12:27:10;2.30;;;2.10;;
8458;SDS011;4266;48.816;9.154;2023-11-21T12:29:36;2.57;;;2.40;;
8458;SDS011;4266;48.816;9.154;2023-11-21T12:32:02;2.40;;;2.30;;
8458;SDS011;4266;48.816;9.154;2023-11-21T12:34:28;2.30;;;2.20;;
8458;SDS011;4266;48.816;9.154;2023-11-21T12:36:53;2.13;;;2.03;;
8458;SDS011;4266;48.816;9.154;2023-11-21T12:39:20;2.00;;;1.90;;
8458;SDS011;4266;48.816;9.154;2023-11-21T12:41:46;2.40;;;2.30;;
8458;SDS011;4266;48.816;9.154;2023-11-21T12:44:13;2.60;;;2.50;;
8458;SDS011;4266;48.816;9.154;2023-11-21T12:46:40;2.60;;;2.50;;
8458;SDS011;4266;48.816;9.154;2023-11-21T12:49:04;2.40;;;2.30;;
8458;SDS011;4266;48.816;9.154;2023-11-21T12:51:30;2.47;;;1.93;;
8458;SDS011;4266;48.816;9.154;2023-11-21T12:53:56;3.33;;;1.77;;
8458;SDS011;4266;48.816;9.154;2023-11-21T12:56:22;1.73;;;1.62;;
8458;SDS011;4266;48.816;9.154;2023-11-21T12:58:49;2.00;;;1.90;;
8458;SDS011;4266;48.816;9.154;2023-11-21T13:01:16;2.80;;;1.80;;
8458;SDS011;4266;48.816;9.154;2023-11-21T13:03:42;1.95;;;1.85;;
8458;SDS011;4266;48.816;9.154;2023-11-21T13:06:08;1.90;;;1.80;;
8458;SDS011;4266;48.816;9.154;2023-11-21T13:08:34;1.58;;;1.20;;
8458;SDS011;4266;48.816;9.154;2023-11-21T13:11:00;0.90;;;0.90;;
8458;SDS011;4266;48.816;9.154;2023-11-21T13:13:28;1.00;;;1.00;;
8458;SDS011;4266;48.816;9.154;2023-11-21T13:15:55;1.30;;;1.30;;
8458;SDS011;4266;48.816;9.154;2023-11-21T13:18:23;1.73;;;1.63;;
8458;SDS011;4266;48.816;9.154;2023-11-21T13:20:49;1.67;;;1.57;;
8458;SDS011;4266;48.816;9.154;2023-11-21T13:23:14;2.07;;;1.87;;
8458;SDS011;4266;48.816;9.154;2023-11-21T13:25:40;2.50;;;1.70;;
8458;SDS011;4266;48.816;9.154;2023-11-21T13:28:07;2.10;;;1.77;;
8458;SDS011;4266;48.816;9.154;2023-11-21T13:30:32;1.90;;;1.80;;
8458;SDS011;4266;48.816;9.154;2023-11-21T13:32:59;2.07;;;1.97;;
8458;SDS011;4266;48.816;9.154;2023-11-21T13:35:28;2.33;;;2.10;;
8458;SDS011;4266;48.816;9.154;2023-11-21T13:37:56;3.97;;;2.13;;
8458;SDS011;4266;48.816;9.154;2023-11-21T13:40:22;2.43;;;2.20;;
8458;SDS011;4266;48.816;9.154;2023-11-21T13:42:49;2.40;;;2.20;;
8458;SDS011;4266;48.816;9.154;2023-11-21T13:45:14;2.37;;;2.17;;
8458;SDS011;4266;48.816;9.154;2023-11-21T13:47:39;2.90;;;2.20;;
8458;SDS011;4266;48.816;9.154;2023-11-21T13:50:06;2.60;;;2.20;;
8458;SDS011;4266;48.816;9.154;2023-11-21T13:52:32;2.50;;;2.30;;
8458;SDS011;4266;48.816;9.154;2023-11-21T13:54:58;2.20;;;2.10;;
8458;SDS011;4266;48.816;9.154;2023-11-21T13:57:24;2.77;;;2.50;;
8458;SDS011;4266;48.816;9.154;2023-11-21T13:59:49;3.20;;;2.83;;
8458;SDS011;4266;48.816;9.154;2023-11-21T14:02:15;3.10;;;2.80;;
8458;SDS011;4266;48.816;9.154;2023-11-21T14:04:42;2.80;;;2.60;;
8458;SDS011;4266;48.816;9.154;2023-11-21T14:07:14;3.90;;;2.70;;
8458;SDS011;4266;48.816;9.154;2023-11-21T14:09:46;3.20;;;3.00;;
8458;SDS011;4266;48.816;9.154;2023-11-21T14:12:11;3.00;;;2.80;;
8458;SDS011;4266;48.816;9.154;2023-11-21T14:14:37;4.20;;;2.90;;
8458;SDS011;4266;48.816;9.154;2023-11-21T14:17:03;2.97;;;2.77;;
8458;SDS011;4266;48.816;9.154;2023-11-21T14:19:29;2.80;;;2.60;;
8458;SDS011;4266;48.816;9.154;2023-11-21T14:21:55;3.10;;;2.90;;
8458;SDS011;4266;48.816;9.154;2023-11-21T14:24:21;3.17;;;2.97;;
8458;SDS011;4266;48.816;9.154;2023-11-21T14:26:47;4.00;;;2.80;;
8458;SDS011;4266;48.816;9.154;2023-11-21T14:29:13;3.00;;;2.80;;
8458;SDS011;4266;48.816;9.154;2023-11-21T14:31:40;3.00;;;2.80;;
8458;SDS011;4266;48.816;9.154;2023-11-21T14:34:05;2.97;;;2.77;;
8458;SDS011;4266;48.816;9.154;2023-11-21T14:36:31;3.00;;;2.60;;
8458;SDS011;4266;48.816;9.154;2023-11-21T14:38:58;3.10;;;2.80;;
8458;SDS011;4266;48.816;9.154;2023-11-21T14:41:23;3.10;;;2.90;;
8458;SDS011;4266;48.816;9.154;2023-11-21T14:43:49;2.80;;;2.60;;
8458;SDS011;4266;48.816;9.154;2023-11-21T14:46:15;3.10;;;2.90;;
8458;SDS011;4266;48.816;9.154;2023-11-21T14:48:40;3.23;;;2.93;;
8458;SDS011;4266;48.816;9.154;2023-11-21T14:51:09;3.23;;;3.03;;
8458;SDS011;4266;48.816;9.154;2023-11-21T14:53:39;3.60;;;3.10;;
8458;SDS011;4266;48.816;9.154;2023-11-21T14:56:09;3.40;;;3.20;;
8458;SDS011;4266;48.816;9.154;2023-11-21T14:58:34;3.60;;;3.30;;
8458;SDS011;4266;48.816;9.154;2023-11-21T15:01:00;3.70;;;3.40;;
8458;SDS011;4266;48.816;9.154;2023-11-21T15:03:26;2.93;;;2.73;;
8458;SDS011;4266;48.816;9.154;2023-11-21T15:06:03;3.30;;;3.00;;
8458;SDS011;4266;48.816;9.154;2023-11-21T15:08:35;3.30;;;3.10;;
8458;SDS011;4266;48.816;9.154;2023-11-21T15:11:01;3.50;;;3.30;;
8458;SDS011;4266;48.816;9.154;2023-11-21T15:13:27;3.20;;;3.00;;